sensor_id;sensor_type;location;lat;lon;timestamp;pressure;altitude;pressure_sealevel;temperature;humidity
14343;BME280;7255;53.596;9.960;2023-04-24T00:00:11;99776.88;;;12.81;nan
14343;BME280;7255;53.596;9.960;2023-04-24T00:02:39;99773.63;;;12.79;nan
14343;BME280;7255;53.596;9.960;2023-04-24T00:05:08;99778.75;;;12.75;nan
14343;BME280;7255;53.596;9.960;2023-04-24T00:07:34;99775.78;;;12.77;nan
14343;BME280;7255;53.596;9.960;2023-04-24T00:10:01;99781.19;;;12.77;nan
14343;BME280;7255;53.596;9.960;2023-04-24T00:12:27;99772.00;;;12.78;nan
14343;BME280;7255;53.596;9.960;2023-04-24T00:14:53;99752.88;;;12.79;nan
14343;BME280;7255;53.596;9.960;2023-04-24T00:17:20;99751.25;;;12.78;nan
14343;BME280;7255;53.596;9.960;2023-04-24T00:19:46;99742.91;;;12.80;nan
14343;BME280;7255;53.596;9.960;2023-04-24T00:22:14;99734.22;;;12.67;nan
14343;BME280;7255;53.596;9.960;2023-04-24T00:24:40;99732.09;;;12.69;nan
14343;BME280;7255;53.596;9.960;2023-04-24T00:27:07;99728.59;;;12.74;nan
14343;BME280;7255;53.596;9.960;2023-04-24T00:29:33;99724.56;;;12.71;nan
14343;BME280;7255;53.596;9.960;2023-04-24T00:31:59;99709.41;;;12.65;nan
14343;BME280;7255;53.596;9.960;2023-04-24T00:34:26;99711.56;;;12.63;nan
14343;BME280;7255;53.596;9.960;2023-04-24T00:36:52;99718.31;;;12.61;nan
14343;BME280;7255;53.596;9.960;2023-04-24T00:39:20;99720.75;;;12.62;nan
14343;BME280;7255;53.596;9.960;2023-04-24T00:41:47;99729.09;;;12.61;nan
14343;BME280;7255;53.596;9.960;2023-04-24T00:44:13;99725.56;;;12.55;nan
14343;BME280;7255;53.596;9.960;2023-04-24T00:46:40;99721.19;;;12.49;nan
14343;BME280;7255;53.596;9.960;2023-04-24T00:49:07;99716.09;;;12.52;nan
14343;BME280;7255;53.596;9.960;2023-04-24T00:51:33;99701.28;;;12.50;nan
14343;BME280;7255;53.596;9.960;2023-04-24T00:53:59;99707.44;;;12.40;nan
14343;BME280;7255;53.596;9.960;2023-04-24T00:56:28;99705.78;;;12.39;nan
14343;BME280;7255;53.596;9.960;2023-04-24T00:58:55;99701.22;;;12.40;nan
14343;BME280;7255;53.596;9.960;2023-04-24T01:01:21;99689.88;;;12.32;nan
14343;BME280;7255;53.596;9.960;2023-04-24T01:03:49;99698.16;;;12.21;nan
14343;BME280;7255;53.596;9.960;2023-04-24T01:06:18;99711.37;;;12.22;nan
14343;BME280;7255;53.596;9.960;2023-04-24T01:08:45;99712.13;;;12.12;nan
14343;BME280;7255;53.596;9.960;2023-04-24T01:11:12;99706.44;;;12.09;nan
14343;BME280;7255;53.596;9.960;2023-04-24T01:13:40;99712.13;;;12.12;nan
14343;BME280;7255;53.596;9.960;2023-04-24T01:16:06;99713.13;;;12.06;nan
14343;BME280;7255;53.596;9.960;2023-04-24T01:18:32;99720.66;;;12.04;nan
14343;BME280;7255;53.596;9.960;2023-04-24T01:21:03;99711.25;;;12.02;nan
14343;BME280;7255;53.596;9.960;2023-04-24T01:23:31;99712.25;;;11.96;nan
14343;BME280;7255;53.596;9.960;2023-04-24T01:25:58;99710.41;;;12.01;nan
14343;BME280;7255;53.596;9.960;2023-04-24T01:28:24;99707.41;;;11.92;nan
14343;BME280;7255;53.596;9.960;2023-04-24T01:30:50;99698.16;;;11.83;nan
14343;BME280;7255;53.596;9.960;2023-04-24T01:33:17;99698.44;;;11.87;nan
14343;BME280;7255;53.596;9.960;2023-04-24T01:35:44;99697.63;;;11.86;nan
14343;BME280;7255;53.596;9.960;2023-04-24T01:38:10;99697.13;;;11.89;nan
14343;BME280;7255;53.596;9.960;2023-04-24T01:40:38;99692.34;;;11.97;nan
14343;BME280;7255;53.596;9.960;2023-04-24T01:43:04;99702.31;;;11.96;nan
14343;BME280;7255;53.596;9.960;2023-04-24T01:45:31;99693.44;;;12.01;nan
14343;BME280;7255;53.596;9.960;2023-04-24T01:47:58;99695.38;;;12.05;nan
14343;BME280;7255;53.596;9.960;2023-04-24T01:50:24;99697.28;;;12.10;nan
14343;BME280;7255;53.596;9.960;2023-04-24T01:52:51;99694.34;;;12.11;nan
14343;BME280;7255;53.596;9.960;2023-04-24T01:55:17;99700.53;;;12.12;nan
14343;BME280;7255;53.596;9.960;2023-04-24T01:57:45;99692.47;;;12.17;nan
14343;BME280;7255;53.596;9.960;2023-04-24T02:00:11;99685.75;;;12.20;nan
14343;BME280;7255;53.596;9.960;2023-04-24T02:02:39;99682.22;;;12.14;nan
14343;BME280;7255;53.596;9.960;2023-04-24T02:05:07;99668.16;;;12.02;nan
14343;BME280;7255;53.596;9.960;2023-04-24T02:07:33;99667.59;;;11.94;nan
14343;BME280;7255;53.596;9.960;2023-04-24T02:09:59;99670.53;;;11.93;nan
14343;BME280;7255;53.596;9.960;2023-04-24T02:12:26;99671.84;;;11.90;nan
14343;BME280;7255;53.596;9.960;2023-04-24T02:14:54;99658.84;;;11.82;nan
14343;BME280;7255;53.596;9.960;2023-04-24T02:17:20;99658.75;;;11.72;nan
14343;BME280;7255;53.596;9.960;2023-04-24T02:19:46;99657.37;;;11.64;nan
14343;BME280;7255;53.596;9.960;2023-04-24T02:22:13;99659.00;;;11.65;nan
14343;BME280;7255;53.596;9.960;2023-04-24T02:24:39;99657.31;;;11.54;nan
14343;BME280;7255;53.596;9.960;2023-04-24T02:27:06;99647.84;;;11.51;nan
14343;BME280;7255;53.596;9.960;2023-04-24T02:29:32;99664.00;;;11.51;nan
14343;BME280;7255;53.596;9.960;2023-04-24T02:32:00;99650.50;;;11.46;nan
14343;BME280;7255;53.596;9.960;2023-04-24T02:34:26;99664.50;;;11.48;nan
14343;BME280;7255;53.596;9.960;2023-04-24T02:36:53;99658.00;;;11.44;nan
14343;BME280;7255;53.596;9.960;2023-04-24T02:39:20;99657.50;;;11.47;nan
14343;BME280;7255;53.596;9.960;2023-04-24T02:41:46;99654.78;;;11.42;nan
14343;BME280;7255;53.596;9.960;2023-04-24T02:44:12;99664.44;;;11.38;nan
14343;BME280;7255;53.596;9.960;2023-04-24T02:46:38;99653.38;;;11.34;nan
14343;BME280;7255;53.596;9.960;2023-04-24T02:49:07;99661.38;;;11.29;nan
14343;BME280;7255;53.596;9.960;2023-04-24T02:51:33;99654.59;;;11.22;nan
14343;BME280;7255;53.596;9.960;2023-04-24T02:54:00;99654.00;;;11.14;nan
14343;BME280;7255;53.596;9.960;2023-04-24T02:56:26;99664.13;;;11.07;nan
14343;BME280;7255;53.596;9.960;2023-04-24T02:58:52;99660.59;;;11.02;nan
14343;BME280;7255;53.596;9.960;2023-04-24T03:01:19;99657.66;;;11.03;nan
14343;BME280;7255;53.596;9.960;2023-04-24T03:03:45;99668.91;;;11.00;nan
14343;BME280;7255;53.596;9.960;2023-04-24T03:06:13;99663.53;;;11.00;nan
14343;BME280;7255;53.596;9.960;2023-04-24T03:08:39;99660.09;;;11.05;nan
14343;BME280;7255;53.596;9.960;2023-04-24T03:11:05;99648.50;;;11.04;nan
14343;BME280;7255;53.596;9.960;2023-04-24T03:13:32;99649.84;;;11.02;nan
14343;BME280;7255;53.596;9.960;2023-04-24T03:15:58;99647.09;;;10.96;nan
14343;BME280;7255;53.596;9.960;2023-04-24T03:18:25;99648.41;;;10.94;nan
14343;BME280;7255;53.596;9.960;2023-04-24T03:20:51;99641.94;;;10.90;nan
14343;BME280;7255;53.596;9.960;2023-04-24T03:23:19;99642.75;;;10.90;nan
14343;BME280;7255;53.596;9.960;2023-04-24T03:25:45;99644.03;;;10.88;nan
14343;BME280;7255;53.596;9.960;2023-04-24T03:28:13;99646.16;;;10.86;nan
14343;BME280;7255;53.596;9.960;2023-04-24T03:30:40;99648.00;;;10.80;nan
14343;BME280;7255;53.596;9.960;2023-04-24T03:33:06;99651.75;;;10.79;nan
14343;BME280;7255;53.596;9.960;2023-04-24T03:35:32;99651.94;;;10.72;nan
14343;BME280;7255;53.596;9.960;2023-04-24T03:37:59;99649.81;;;10.74;nan
14343;BME280;7255;53.596;9.960;2023-04-24T03:40:26;99651.94;;;10.72;nan
14343;BME280;7255;53.596;9.960;2023-04-24T03:42:54;99651.31;;;10.65;nan
14343;BME280;7255;53.596;9.960;2023-04-24T03:45:21;99665.22;;;10.57;nan
14343;BME280;7255;53.596;9.960;2023-04-24T03:47:47;99649.78;;;10.47;nan
14343;BME280;7255;53.596;9.960;2023-04-24T03:50:13;99641.97;;;10.46;nan
14343;BME280;7255;53.596;9.960;2023-04-24T03:52:40;99652.53;;;10.52;nan
14343;BME280;7255;53.596;9.960;2023-04-24T03:55:07;99652.53;;;10.52;nan
14343;BME280;7255;53.596;9.960;2023-04-24T03:57:35;99643.59;;;10.47;nan
14343;BME280;7255;53.596;9.960;2023-04-24T04:00:01;99636.59;;;10.46;nan
14343;BME280;7255;53.596;9.960;2023-04-24T04:02:29;99638.72;;;10.44;nan
14343;BME280;7255;53.596;9.960;2023-04-24T04:04:56;99640.84;;;10.42;nan
14343;BME280;7255;53.596;9.960;2023-04-24T04:07:22;99630.59;;;10.38;nan
14343;BME280;7255;53.596;9.960;2023-04-24T04:09:48;99637.59;;;10.39;nan
14343;BME280;7255;53.596;9.960;2023-04-24T04:12:14;99635.97;;;10.38;nan
14343;BME280;7255;53.596;9.960;2023-04-24T04:14:42;99628.97;;;10.37;nan
14343;BME280;7255;53.596;9.960;2023-04-24T04:17:08;99637.78;;;10.33;nan
14343;BME280;7255;53.596;9.960;2023-04-24T04:19:35;99629.78;;;10.38;nan
14343;BME280;7255;53.596;9.960;2023-04-24T04:22:01;99630.59;;;10.38;nan
14343;BME280;7255;53.596;9.960;2023-04-24T04:24:27;99636.47;;;10.35;nan
14343;BME280;7255;53.596;9.960;2023-04-24T04:26:54;99633.56;;;10.37;nan
14343;BME280;7255;53.596;9.960;2023-04-24T04:29:21;99633.56;;;10.37;nan
14343;BME280;7255;53.596;9.960;2023-04-24T04:31:50;99641.84;;;10.35;nan
14343;BME280;7255;53.596;9.960;2023-04-24T04:34:16;99654.19;;;10.36;nan
14343;BME280;7255;53.596;9.960;2023-04-24T04:36:43;99640.84;;;10.42;nan
14343;BME280;7255;53.596;9.960;2023-04-24T04:39:11;99646.22;;;10.42;nan
14343;BME280;7255;53.596;9.960;2023-04-24T04:41:39;99654.72;;;10.33;nan
14343;BME280;7255;53.596;9.960;2023-04-24T04:44:06;99656.00;;;10.31;nan
14343;BME280;7255;53.596;9.960;2023-04-24T04:46:33;99655.03;;;10.37;nan
14343;BME280;7255;53.596;9.960;2023-04-24T04:49:03;99661.50;;;10.41;nan
14343;BME280;7255;53.596;9.960;2023-04-24T04:51:30;99663.41;;;10.63;nan
14343;BME280;7255;53.596;9.960;2023-04-24T04:53:57;99673.25;;;10.79;nan
14343;BME280;7255;53.596;9.960;2023-04-24T04:56:23;99677.75;;;10.95;nan
14343;BME280;7255;53.596;9.960;2023-04-24T04:58:49;99671.69;;;11.10;nan
14343;BME280;7255;53.596;9.960;2023-04-24T05:01:16;99662.38;;;11.18;nan
14343;BME280;7255;53.596;9.960;2023-04-24T05:03:42;99673.47;;;11.27;nan
14343;BME280;7255;53.596;9.960;2023-04-24T05:06:10;99655.22;;;11.29;nan
14343;BME280;7255;53.596;9.960;2023-04-24T05:08:36;99658.94;;;11.28;nan
14343;BME280;7255;53.596;9.960;2023-04-24T05:11:02;99666.97;;;11.23;nan
14343;BME280;7255;53.596;9.960;2023-04-24T05:13:29;99658.87;;;11.17;nan
14343;BME280;7255;53.596;9.960;2023-04-24T05:15:55;99657.44;;;11.10;nan
14343;BME280;7255;53.596;9.960;2023-04-24T05:18:21;99668.47;;;11.08;nan
14343;BME280;7255;53.596;9.960;2023-04-24T05:20:47;99663.03;;;11.03;nan
14343;BME280;7255;53.596;9.960;2023-04-24T05:23:15;99669.22;;;11.04;nan
14343;BME280;7255;53.596;9.960;2023-04-24T05:25:41;99663.84;;;11.04;nan
14343;BME280;7255;53.596;9.960;2023-04-24T05:28:08;99671.69;;;11.10;nan
14343;BME280;7255;53.596;9.960;2023-04-24T05:30:34;99664.84;;;11.25;nan
14343;BME280;7255;53.596;9.960;2023-04-24T05:33:01;99665.97;;;11.29;nan
14343;BME280;7255;53.596;9.960;2023-04-24T05:35:27;99659.56;;;11.35;nan
14343;BME280;7255;53.596;9.960;2023-04-24T05:37:54;99664.13;;;11.34;nan
14343;BME280;7255;53.596;9.960;2023-04-24T05:40:21;99671.41;;;11.39;nan
14343;BME280;7255;53.596;9.960;2023-04-24T05:42:48;99663.41;;;11.44;nan
14343;BME280;7255;53.596;9.960;2023-04-24T05:45:14;99670.09;;;11.42;nan
14343;BME280;7255;53.596;9.960;2023-04-24T05:47:41;99664.13;;;11.34;nan
14343;BME280;7255;53.596;9.960;2023-04-24T05:50:09;99662.78;;;11.37;nan
14343;BME280;7255;53.596;9.960;2023-04-24T05:52:35;99662.78;;;11.37;nan
14343;BME280;7255;53.596;9.960;2023-04-24T05:55:01;99666.63;;;11.41;nan
14343;BME280;7255;53.596;9.960;2023-04-24T05:57:29;99669.88;;;11.48;nan
14343;BME280;7255;53.596;9.960;2023-04-24T05:59:55;99675.78;;;11.45;nan
14343;BME280;7255;53.596;9.960;2023-04-24T06:02:22;99676.88;;;11.49;nan
14343;BME280;7255;53.596;9.960;2023-04-24T06:04:48;99681.25;;;11.55;nan
14343;BME280;7255;53.596;9.960;2023-04-24T06:07:14;99680.44;;;11.55;nan
14343;BME280;7255;53.596;9.960;2023-04-24T06:09:41;99671.56;;;11.54;nan
14343;BME280;7255;53.596;9.960;2023-04-24T06:12:07;99681.84;;;11.63;nan
14343;BME280;7255;53.596;9.960;2023-04-24T06:14:35;99672.72;;;11.64;nan
14343;BME280;7255;53.596;9.960;2023-04-24T06:17:01;99684.78;;;11.61;nan
14343;BME280;7255;53.596;9.960;2023-04-24T06:19:28;99678.69;;;11.71;nan
14343;BME280;7255;53.596;9.960;2023-04-24T06:21:54;99667.38;;;11.74;nan
14343;BME280;7255;53.596;9.960;2023-04-24T06:24:20;99677.59;;;11.67;nan
14343;BME280;7255;53.596;9.960;2023-04-24T06:26:47;99683.25;;;11.70;nan
14343;BME280;7255;53.596;9.960;2023-04-24T06:29:13;99684.06;;;11.71;nan
14343;BME280;7255;53.596;9.960;2023-04-24T06:31:41;99673.66;;;11.85;nan
14343;BME280;7255;53.596;9.960;2023-04-24T06:34:07;99675.91;;;11.93;nan
14343;BME280;7255;53.596;9.960;2023-04-24T06:36:34;99689.13;;;11.94;nan
14343;BME280;7255;53.596;9.960;2023-04-24T06:39:00;99684.03;;;11.98;nan
14343;BME280;7255;53.596;9.960;2023-04-24T06:41:27;99681.91;;;12.05;nan
14343;BME280;7255;53.596;9.960;2023-04-24T06:43:54;99694.34;;;12.11;nan
14343;BME280;7255;53.596;9.960;2023-04-24T06:46:21;99702.75;;;12.20;nan
14343;BME280;7255;53.596;9.960;2023-04-24T06:48:50;99699.53;;;12.28;nan
14343;BME280;7255;53.596;9.960;2023-04-24T06:51:16;99696.09;;;12.33;nan
14343;BME280;7255;53.596;9.960;2023-04-24T06:53:43;99694.22;;;12.39;nan
14343;BME280;7255;53.596;9.960;2023-04-24T06:56:09;99697.22;;;12.47;nan
14343;BME280;7255;53.596;9.960;2023-04-24T06:58:36;99695.87;;;12.50;nan
14343;BME280;7255;53.596;9.960;2023-04-24T07:01:02;99710.47;;;12.59;nan
14343;BME280;7255;53.596;9.960;2023-04-24T07:03:29;99694.66;;;12.73;nan
14343;BME280;7255;53.596;9.960;2023-04-24T07:05:57;99709.81;;;12.89;nan
14343;BME280;7255;53.596;9.960;2023-04-24T07:08:23;99697.38;;;12.88;nan
14343;BME280;7255;53.596;9.960;2023-04-24T07:10:50;99705.44;;;12.83;nan
14343;BME280;7255;53.596;9.960;2023-04-24T07:13:16;99697.91;;;12.85;nan
14343;BME280;7255;53.596;9.960;2023-04-24T07:15:43;99704.66;;;12.83;nan
14343;BME280;7255;53.596;9.960;2023-04-24T07:18:10;99706.53;;;12.87;nan
14343;BME280;7255;53.596;9.960;2023-04-24T07:20:36;99710.09;;;13.03;nan
14343;BME280;7255;53.596;9.960;2023-04-24T07:23:04;99714.72;;;13.23;nan
14343;BME280;7255;53.596;9.960;2023-04-24T07:25:30;99715.34;;;13.51;nan
14343;BME280;7255;53.596;9.960;2023-04-24T07:27:56;99721.00;;;13.55;nan
14343;BME280;7255;53.596;9.960;2023-04-24T07:30:23;99711.81;;;13.45;nan
14343;BME280;7255;53.596;9.960;2023-04-24T07:32:49;99720.75;;;13.41;nan
14343;BME280;7255;53.596;9.960;2023-04-24T07:35:16;99715.06;;;13.47;nan
14343;BME280;7255;53.596;9.960;2023-04-24T07:37:42;99723.16;;;13.32;nan
14343;BME280;7255;53.596;9.960;2023-04-24T07:40:12;99727.94;;;13.25;nan
14343;BME280;7255;53.596;9.960;2023-04-24T07:42:39;99721.50;;;13.31;nan
14343;BME280;7255;53.596;9.960;2023-04-24T07:45:06;99718.50;;;13.22;nan
14343;BME280;7255;53.596;9.960;2023-04-24T07:47:33;99725.47;;;13.13;nan
14343;BME280;7255;53.596;9.960;2023-04-24T07:50:00;99728.19;;;13.08;nan
14343;BME280;7255;53.596;9.960;2023-04-24T07:52:26;99750.03;;;13.12;nan
14343;BME280;7255;53.596;9.960;2023-04-24T07:54:52;99738.53;;;13.32;nan
14343;BME280;7255;53.596;9.960;2023-04-24T07:57:24;99755.56;;;13.63;nan
14343;BME280;7255;53.596;9.960;2023-04-24T07:59:51;99758.25;;;13.68;nan
14343;BME280;7255;53.596;9.960;2023-04-24T08:02:17;99758.81;;;13.75;nan
14343;BME280;7255;53.596;9.960;2023-04-24T08:04:43;99768.28;;;13.78;nan
14343;BME280;7255;53.596;9.960;2023-04-24T08:07:10;99767.19;;;13.94;nan
14343;BME280;7255;53.596;9.960;2023-04-24T08:09:37;99753.44;;;13.96;nan
14343;BME280;7255;53.596;9.960;2023-04-24T08:12:04;99764.22;;;13.96;nan
14343;BME280;7255;53.596;9.960;2023-04-24T08:14:32;99755.31;;;14.11;nan
14343;BME280;7255;53.596;9.960;2023-04-24T08:16:58;99761.47;;;14.32;nan
14343;BME280;7255;53.596;9.960;2023-04-24T08:19:25;99766.88;;;14.42;nan
14343;BME280;7255;53.596;9.960;2023-04-24T08:21:52;99771.44;;;14.52;nan
14343;BME280;7255;53.596;9.960;2023-04-24T08:24:18;99777.09;;;14.55;nan
14343;BME280;7255;53.596;9.960;2023-04-24T08:26:44;99783.06;;;14.62;nan
14343;BME280;7255;53.596;9.960;2023-04-24T08:29:10;99791.44;;;14.61;nan
14343;BME280;7255;53.596;9.960;2023-04-24T08:31:38;99776.62;;;14.28;nan
14343;BME280;7255;53.596;9.960;2023-04-24T08:34:04;99782.03;;;14.38;nan
14343;BME280;7255;53.596;9.960;2023-04-24T08:36:31;99777.69;;;14.42;nan
14343;BME280;7255;53.596;9.960;2023-04-24T08:38:58;99779.56;;;14.47;nan
14343;BME280;7255;53.596;9.960;2023-04-24T08:41:25;99778.22;;;14.39;nan
14343;BME280;7255;53.596;9.960;2023-04-24T08:43:53;99784.16;;;14.46;nan
14343;BME280;7255;53.596;9.960;2023-04-24T08:46:20;99779.28;;;14.53;nan
14343;BME280;7255;53.596;9.960;2023-04-24T08:48:50;99784.16;;;14.46;nan
14343;BME280;7255;53.596;9.960;2023-04-24T08:51:17;99786.91;;;14.31;nan
14343;BME280;7255;53.596;9.960;2023-04-24T08:53:45;99788.53;;;14.21;nan
14343;BME280;7255;53.596;9.960;2023-04-24T08:56:12;99779.84;;;14.30;nan
14343;BME280;7255;53.596;9.960;2023-04-24T08:58:39;99787.69;;;14.41;nan
14343;BME280;7255;53.596;9.960;2023-04-24T09:01:06;99785.78;;;14.47;nan
14343;BME280;7255;53.596;9.960;2023-04-24T09:03:33;99795.75;;;14.47;nan
14343;BME280;7255;53.596;9.960;2023-04-24T09:06:02;99796.59;;;14.57;nan
14343;BME280;7255;53.596;9.960;2023-04-24T09:08:29;99809.75;;;14.90;nan
14343;BME280;7255;53.596;9.960;2023-04-24T09:10:56;99798.34;;;15.03;nan
14343;BME280;7255;53.596;9.960;2023-04-24T09:13:27;99803.56;;;15.44;nan
14343;BME280;7255;53.596;9.960;2023-04-24T09:15:53;99803.84;;;15.48;nan
14343;BME280;7255;53.596;9.960;2023-04-24T09:18:22;99802.19;;;15.47;nan
14343;BME280;7255;53.596;9.960;2023-04-24T09:20:58;99817.31;;;15.53;nan
14343;BME280;7255;53.596;9.960;2023-04-24T09:23:28;99814.53;;;15.68;nan
14343;BME280;7255;53.596;9.960;2023-04-24T09:25:55;99818.69;;;15.50;nan
14343;BME280;7255;53.596;9.960;2023-04-24T09:28:26;99814.69;;;15.37;nan
14343;BME280;7255;53.596;9.960;2023-04-24T09:31:03;99808.28;;;15.23;nan
14343;BME280;7255;53.596;9.960;2023-04-24T09:33:29;99814.53;;;15.13;nan
14343;BME280;7255;53.596;9.960;2023-04-24T09:35:56;99818.13;;;14.98;nan
14343;BME280;7255;53.596;9.960;2023-04-24T09:38:32;99811.06;;;15.02;nan
14343;BME280;7255;53.596;9.960;2023-04-24T09:40:59;99808.38;;;15.02;nan
14343;BME280;7255;53.596;9.960;2023-04-24T09:43:27;99818.56;;;15.26;nan
14343;BME280;7255;53.596;9.960;2023-04-24T09:45:55;99817.81;;;15.05;nan
14343;BME280;7255;53.596;9.960;2023-04-24T09:48:29;99818.16;;;14.78;nan
14343;BME280;7255;53.596;9.960;2023-04-24T09:50:56;99815.22;;;14.69;nan
14343;BME280;7255;53.596;9.960;2023-04-24T09:53:24;99814.94;;;14.76;nan
14343;BME280;7255;53.596;9.960;2023-04-24T09:55:52;99822.50;;;14.74;nan
14343;BME280;7255;53.596;9.960;2023-04-24T09:58:24;99819.25;;;14.77;nan
14343;BME280;7255;53.596;9.960;2023-04-24T10:00:53;99821.91;;;14.97;nan
14343;BME280;7255;53.596;9.960;2023-04-24T10:03:24;99814.09;;;14.86;nan
14343;BME280;7255;53.596;9.960;2023-04-24T10:05:51;99824.16;;;14.65;nan
14343;BME280;7255;53.596;9.960;2023-04-24T10:08:18;99824.72;;;14.20;nan
14343;BME280;7255;53.596;9.960;2023-04-24T10:10:45;99830.12;;;14.31;nan
14343;BME280;7255;53.596;9.960;2023-04-24T10:13:14;99826.88;;;14.18;nan
14343;BME280;7255;53.596;9.960;2023-04-24T10:15:41;99825.53;;;14.11;nan
14343;BME280;7255;53.596;9.960;2023-04-24T10:18:08;99826.34;;;14.21;nan
14343;BME280;7255;53.596;9.960;2023-04-24T10:20:38;99827.38;;;14.36;nan
14343;BME280;7255;53.596;9.960;2023-04-24T10:23:05;99827.97;;;14.33;nan
14343;BME280;7255;53.596;9.960;2023-04-24T10:25:33;99829.56;;;14.54;nan
14343;BME280;7255;53.596;9.960;2023-04-24T10:28:00;99830.09;;;14.61;nan
14343;BME280;7255;53.596;9.960;2023-04-24T10:30:29;99833.84;;;14.71;nan
14343;BME280;7255;53.596;9.960;2023-04-24T10:32:59;99836.56;;;14.76;nan
14343;BME280;7255;53.596;9.960;2023-04-24T10:35:25;99835.16;;;14.99;nan
14343;BME280;7255;53.596;9.960;2023-04-24T10:37:56;99834.34;;;14.93;nan
14343;BME280;7255;53.596;9.960;2023-04-24T10:40:25;99830.53;;;14.99;nan
14343;BME280;7255;53.596;9.960;2023-04-24T10:42:52;99839.25;;;14.91;nan
14343;BME280;7255;53.596;9.960;2023-04-24T10:45:20;99848.41;;;14.90;nan
14343;BME280;7255;53.596;9.960;2023-04-24T10:47:58;99842.50;;;14.83;nan
14343;BME280;7255;53.596;9.960;2023-04-24T10:50:26;99842.50;;;14.83;nan
14343;BME280;7255;53.596;9.960;2023-04-24T10:53:05;99837.00;;;15.04;nan
14343;BME280;7255;53.596;9.960;2023-04-24T10:55:43;99841.25;;;15.30;nan
14343;BME280;7255;53.596;9.960;2023-04-24T10:58:10;99845.59;;;15.26;nan
14343;BME280;7255;53.596;9.960;2023-04-24T11:00:37;99837.47;;;15.31;nan
14343;BME280;7255;53.596;9.960;2023-04-24T11:03:06;99851.28;;;15.30;nan
14343;BME280;7255;53.596;9.960;2023-04-24T11:05:50;99853.97;;;15.35;nan
14343;BME280;7255;53.596;9.960;2023-04-24T11:08:22;99840.34;;;15.50;nan
14343;BME280;7255;53.596;9.960;2023-04-24T11:10:55;99848.19;;;15.52;nan
14343;BME280;7255;53.596;9.960;2023-04-24T11:13:23;99845.94;;;15.64;nan
14343;BME280;7255;53.596;9.960;2023-04-24T11:16:14;99845.12;;;15.74;nan
14343;BME280;7255;53.596;9.960;2023-04-24T11:18:42;99850.88;;;15.57;nan
14343;BME280;7255;53.596;9.960;2023-04-24T11:21:16;99857.00;;;15.78;nan
14343;BME280;7255;53.596;9.960;2023-04-24T11:23:43;99863.91;;;16.00;nan
14343;BME280;7255;53.596;9.960;2023-04-24T11:26:11;99851.78;;;15.92;nan
14343;BME280;7255;53.596;9.960;2023-04-24T11:28:44;99848.59;;;15.80;nan
14343;BME280;7255;53.596;9.960;2023-04-24T11:31:36;99845.22;;;15.53;nan
14343;BME280;7255;53.596;9.960;2023-04-24T11:34:12;99850.63;;;15.53;nan
14343;BME280;7255;53.596;9.960;2023-04-24T11:36:39;99847.19;;;15.37;nan
14343;BME280;7255;53.596;9.960;2023-04-24T11:39:06;99844.03;;;15.70;nan
14343;BME280;7255;53.596;9.960;2023-04-24T11:41:33;99856.47;;;15.71;nan
14343;BME280;7255;53.596;9.960;2023-04-24T11:43:59;99846.84;;;15.99;nan
14343;BME280;7255;53.596;9.960;2023-04-24T11:46:27;99852.09;;;15.85;nan
14343;BME280;7255;53.596;9.960;2023-04-24T11:48:54;99849.47;;;15.65;nan
14343;BME280;7255;53.596;9.960;2023-04-24T11:51:22;99841.16;;;15.51;nan
14343;BME280;7255;53.596;9.960;2023-04-24T11:53:48;99847.03;;;15.68;nan
14343;BME280;7255;53.596;9.960;2023-04-24T11:56:17;99845.78;;;15.95;nan
14343;BME280;7255;53.596;9.960;2023-04-24T11:58:44;99832.69;;;16.07;nan
14343;BME280;7255;53.596;9.960;2023-04-24T12:01:10;99844.09;;;15.59;nan
14343;BME280;7255;53.596;9.960;2023-04-24T12:03:37;99845.88;;;15.30;nan
14343;BME280;7255;53.596;9.960;2023-04-24T12:06:06;99848.34;;;15.11;nan
14343;BME280;7255;53.596;9.960;2023-04-24T12:08:35;99851.09;;;15.06;nan
14343;BME280;7255;53.596;9.960;2023-04-24T12:11:01;99850.56;;;15.64;nan
14343;BME280;7255;53.596;9.960;2023-04-24T12:13:28;99852.75;;;16.06;nan
14343;BME280;7255;53.596;9.960;2023-04-24T12:15:54;99852.59;;;16.27;nan
14343;BME280;7255;53.596;9.960;2023-04-24T12:18:22;99853.09;;;16.34;nan
14343;BME280;7255;53.596;9.960;2023-04-24T12:20:49;99855.44;;;16.70;nan
14343;BME280;7255;53.596;9.960;2023-04-24T12:23:16;99843.13;;;16.83;nan
14343;BME280;7255;53.596;9.960;2023-04-24T12:25:44;99864.09;;;16.72;nan
14343;BME280;7255;53.596;9.960;2023-04-24T12:28:11;99854.13;;;16.38;nan
14343;BME280;7255;53.596;9.960;2023-04-24T12:30:41;99861.25;;;16.29;nan
14343;BME280;7255;53.596;9.960;2023-04-24T12:33:09;99860.53;;;16.18;nan
14343;BME280;7255;53.596;9.960;2023-04-24T12:35:35;99865.69;;;15.70;nan
14343;BME280;7255;53.596;9.960;2023-04-24T12:38:05;99853.31;;;14.83;nan
14343;BME280;7255;53.596;9.960;2023-04-24T12:40:33;99845.50;;;14.71;nan
14343;BME280;7255;53.596;9.960;2023-04-24T12:43:00;99850.56;;;14.98;nan
14343;BME280;7255;53.596;9.960;2023-04-24T12:45:27;99844.38;;;14.88;nan
14343;BME280;7255;53.596;9.960;2023-04-24T12:47:53;99859.50;;;14.94;nan
14343;BME280;7255;53.596;9.960;2023-04-24T12:50:20;99841.47;;;14.58;nan
14343;BME280;7255;53.596;9.960;2023-04-24T12:52:47;99856.31;;;14.40;nan
14343;BME280;7255;53.596;9.960;2023-04-24T12:55:13;99860.09;;;14.39;nan
14343;BME280;7255;53.596;9.960;2023-04-24T12:57:40;99855.50;;;14.19;nan
14343;BME280;7255;53.596;9.960;2023-04-24T13:00:08;99854.44;;;14.05;nan
14343;BME280;7255;53.596;9.960;2023-04-24T13:02:35;99857.66;;;13.86;nan
14343;BME280;7255;53.596;9.960;2023-04-24T13:05:01;99863.28;;;13.90;nan
14343;BME280;7255;53.596;9.960;2023-04-24T13:07:28;99857.91;;;13.80;nan
14343;BME280;7255;53.596;9.960;2023-04-24T13:09:55;99851.72;;;14.00;nan
14343;BME280;7255;53.596;9.960;2023-04-24T13:12:22;99862.28;;;14.27;nan
14343;BME280;7255;53.596;9.960;2023-04-24T13:14:49;99860.91;;;14.40;nan
14343;BME280;7255;53.596;9.960;2023-04-24T13:17:17;99865.78;;;14.33;nan
14343;BME280;7255;53.596;9.960;2023-04-24T13:19:44;99863.59;;;14.24;nan
14343;BME280;7255;53.596;9.960;2023-04-24T13:22:11;99868.72;;;14.21;nan
14343;BME280;7255;53.596;9.960;2023-04-24T13:24:38;99867.38;;;14.13;nan
14343;BME280;7255;53.596;9.960;2023-04-24T13:27:06;99865.72;;;13.92;nan
14343;BME280;7255;53.596;9.960;2023-04-24T13:29:33;99854.44;;;14.25;nan
14343;BME280;7255;53.596;9.960;2023-04-24T13:32:00;99858.75;;;14.42;nan